Mineral Point, PA (15942)

1:54 PM EDT on September 04, 2015 (GMT -0400)
Chickaree Summit Rainwise Station | | Change Station
CLOSE
Current Station
Personal Weather Station
Location: Johnstown, PA
Elevation: 1759 ft
Nearby Weather Stations

Elev 1759 ft 40.42 °N, 78.87 °W | Updated 9 seconds ago

Partly Cloudy
Partly Cloudy
89.9 °F
Feels Like 98 °F
N
0.0
Wind Variable Wind from SSE
Gusts 0.0 mph

Today
High -- | Low -- °F
--% Chance of Precip.
Yesterday
High -- | Low -- °F
Precip. -- in
6:45 AM 7:42 PM
Waning Gibbous, 57% visible
Pressure 30.09 in
Visibility 8.0 miles
Clouds Few 2900 ft
Few 3700 ft
Heat Index 98 °F
Dew Point 73 °F
Humidity 58%
Rainfall 0.00 in
Snow Depth Not available.
UV 9 out of 12
Pollen 8.50 out of 12
Air Quality Not available.
Flu Activity Not available.
METAR KJST 041654Z AUTO 28005KT 8SM FEW029 FEW037 27/18 A3014 RMK AO2 SLP189 T02720183
Pressure 30.09 in
Visibility 8.0 miles
Clouds Few 2900 ft
Few 3700 ft
Heat Index 98 °F
Dew Point 73 °F
Humidity 58%
Rainfall 0.00 in
Snow Depth Not available.
UV 9 out of 12
Pollen 8.50 out of 12
Air Quality Not available.
Flu Activity Not available.
METAR KJST 041654Z AUTO 28005KT 8SM FEW029 FEW037 27/18 A3014 RMK AO2 SLP189 T02720183

10-Day Weather Forecast

×

Almanac

Astronomy

Sep. 04, 2015 Rise Set
Actual Time
Civil Twilight
Nautical Twilight
Astronomical Twilight
Moon
Length of Visible Light
Length of Day
Tomorrow will be .
, % of the Moon is Illuminated

Today's Extremes

State Highs State Lows

Community

WunderPhotos

Upload Photos

1,852,250 photos uploaded!

WunderBlogs® & News

Nearby

Air Quality

  Air Quality AQ Index Pollutant
Not available.

Snow Depth

Station Depth Elevation

Earthquake Activity

City Distance Mag. Time & Date
Minimum magnitude displayed is 2.5.

Coastal Water Temperatures

Place Temperature

Stations

Nearby Weather Stations

Station Location Temp. Windchill Dew Point Humidity Wind Precip. Elev Updated Type